Canadian, TX

3:50 AM CST on February 25, 2017 (GMT -0600)
Hemphill County

Weather History for KHHF - October, 2012

Change the Weather History Date:

Thursday, October 25, 2012

  Actual Average (KPPA) Record (KPPA)
Temperature  
Mean Temperature 55 °F -  
Max Temperature 71 °F 67 °F 86 °F (2011)
Min Temperature 37 °F 41 °F 24 °F (1975)
Degree Days  
Heating Degree Days 10    
Growing Degree Days 5 (Base 50)    
Moisture  
Dew Point 37 °F    
Average Humidity 64    
Maximum Humidity 88    
Minimum Humidity 47    
Precipitation  
Precipitation 0.03 in - - ()
Sea Level Pressure  
Sea Level Pressure 30.06 in    
Wind  
Wind Speed 17 mph (North)    
Max Wind Speed 26 mph    
Max Gust Speed 38 mph    
Visibility 10 miles    
Events      
Averages and records for this station are not official NWS values.
T = Trace of Precipitation, MM = Missing Value Source: NWS Daily Summary

Daily Weather History Graph

Daily Weather History Graph

Search for Another Location

Airport or City:

Trip Planner

Search our weather history database for the weather conditions in past years. The results will help you decide how hot, cold, wet, or windy it might be!

Date:

Astronomy

Oct. 25, 2012 Rise Set
Actual Time 7:57 AM CDT 6:52 PM CDT
Civil Twilight 7:31 AM CDT 7:19 PM CDT
Nautical Twilight 7:01 AM CDT 7:49 PM CDT
Astronomical Twilight 6:31 AM CDT 8:18 PM CDT
Moon 4:34 PM CDT 4:02 AM CDT
Length of Visible Light 11h 47m
Length of Day
10h 55m
Waxing Gibbous, 84% of the Moon is Illuminated
Oct 25
Waxing Gibbous
Oct 29
Full
Nov 6
Last Quarter
Nov 13
New
Nov 20
First Quarter

Hourly Weather History & Observations

Time (CDT) Temp. Windchill Dew Point Humidity Pressure Visibility Wind Dir Wind Speed Gust Speed Precip Events Conditions
12:15 AM 71.6 °F - 62.6 °F 73% 29.65 in 10.0 mi South 17.3 mph 24.2 mph N/A   Clear
12:35 AM 69.8 °F - 62.6 °F 78% 29.65 in 10.0 mi SSW 18.4 mph 24.2 mph N/A   Clear
12:55 AM 69.8 °F - 62.6 °F 78% 29.65 in 10.0 mi South 17.3 mph 27.6 mph N/A   Clear
1:35 AM 69.8 °F - 62.6 °F 78% 29.64 in 10.0 mi SSW 18.4 mph 25.3 mph N/A   Clear
1:55 AM 69.8 °F - 62.6 °F 78% 29.63 in 10.0 mi South 19.6 mph 26.5 mph N/A   Clear
2:35 AM 68.0 °F - 62.6 °F 83% 29.66 in 10.0 mi SW 13.8 mph - N/A   Clear
2:55 AM 69.8 °F - 62.6 °F 78% 29.66 in 10.0 mi SW 13.8 mph 19.6 mph N/A   Clear
3:15 AM 69.8 °F - 62.6 °F 78% 29.67 in 10.0 mi SW 12.7 mph 21.9 mph N/A   Clear
3:35 AM 59.0 °F - 51.8 °F 77% 29.76 in 10.0 mi NNW 26.5 mph 38.0 mph N/A   Scattered Clouds
3:55 AM 55.4 °F - 50.0 °F 82% 29.77 in 7.0 mi NNW 18.4 mph 28.8 mph N/A   Scattered Clouds
4:15 AM 53.6 °F - 50.0 °F 88% 29.80 in 10.0 mi North 20.7 mph 33.4 mph N/A   Overcast
4:35 AM 53.6 °F - 48.2 °F 82% 29.82 in 10.0 mi North 17.3 mph 25.3 mph N/A   Overcast
4:55 AM 51.8 °F - 46.4 °F 82% 29.86 in 10.0 mi North 19.6 mph 26.5 mph N/A   Overcast
5:15 AM 50.0 °F - 44.6 °F 82% 29.88 in 10.0 mi North 25.3 mph 33.4 mph N/A   Overcast
5:35 AM 50.0 °F - 42.8 °F 76% 29.91 in 10.0 mi North 20.7 mph 35.7 mph N/A   Overcast
5:55 AM 50.0 °F - 42.8 °F 76% 29.94 in 10.0 mi North 19.6 mph 29.9 mph N/A   Overcast
6:35 AM 46.4 °F 38.3 °F 37.4 °F 71% 29.98 in 10.0 mi North 23.0 mph 33.4 mph N/A   Overcast
6:55 AM 46.4 °F 39.0 °F 37.4 °F 71% 29.99 in 10.0 mi North 19.6 mph 26.5 mph N/A   Overcast
7:35 AM 44.6 °F 36.9 °F 35.6 °F 71% 30.01 in 10.0 mi North 18.4 mph 25.3 mph N/A   Overcast
7:55 AM 44.6 °F 36.9 °F 35.6 °F 71% 30.02 in 10.0 mi North 18.4 mph 27.6 mph N/A   Mostly Cloudy
8:15 AM 42.8 °F 34.8 °F 33.8 °F 70% 30.05 in 10.0 mi North 17.3 mph 28.8 mph N/A   Scattered Clouds
8:35 AM 42.8 °F 33.8 °F 32.0 °F 66% 30.07 in 10.0 mi North 21.9 mph 28.8 mph N/A   Clear
8:55 AM 42.8 °F 33.8 °F 32.0 °F 66% 30.09 in 10.0 mi North 21.9 mph 29.9 mph N/A   Clear
9:15 AM 42.8 °F 33.5 °F 32.0 °F 66% 30.11 in 10.0 mi North 23.0 mph 33.4 mph N/A   Mostly Cloudy
9:35 AM 41.0 °F 31.1 °F 32.0 °F 70% 30.13 in 10.0 mi North 23.0 mph 35.7 mph N/A   Overcast
9:55 AM 42.8 °F 33.3 °F 32.0 °F 66% 30.13 in 10.0 mi North 24.2 mph 31.1 mph N/A   Overcast
10:15 AM 42.8 °F 32.9 °F 32.0 °F 66% 30.14 in 10.0 mi North 26.5 mph 34.5 mph N/A   Overcast
10:35 AM 42.8 °F 33.8 °F 32.0 °F 66% 30.15 in 10.0 mi North 21.9 mph 31.1 mph N/A   Overcast
10:55 AM 42.8 °F 33.8 °F 32.0 °F 66% 30.16 in 10.0 mi North 21.9 mph 31.1 mph N/A   Overcast
11:15 AM 42.8 °F 34.8 °F 33.8 °F 70% 30.16 in 10.0 mi North 17.3 mph 29.9 mph N/A   Overcast
11:35 AM 42.8 °F 33.3 °F 32.0 °F 66% 30.17 in 10.0 mi North 24.2 mph 31.1 mph N/A   Overcast
11:55 AM 44.6 °F 36.4 °F 33.8 °F 66% 30.18 in 10.0 mi North 20.7 mph 27.6 mph N/A   Overcast
12:15 PM 46.4 °F 37.7 °F 32.0 °F 57% 30.17 in 10.0 mi North 26.5 mph 31.1 mph N/A   Overcast
12:35 PM 46.4 °F 38.1 °F 32.0 °F 57% 30.17 in 10.0 mi North 24.2 mph 31.1 mph N/A   Mostly Cloudy
12:55 PM 46.4 °F 38.7 °F 32.0 °F 57% 30.17 in 10.0 mi North 20.7 mph 32.2 mph N/A   Scattered Clouds
1:15 PM 46.4 °F 39.0 °F 32.0 °F 57% 30.17 in 10.0 mi North 19.6 mph 28.8 mph N/A   Mostly Cloudy
1:35 PM 48.2 °F - 32.0 °F 54% 30.16 in 10.0 mi North 17.3 mph 26.5 mph N/A   Overcast
1:55 PM 50.0 °F - 32.0 °F 50% 30.16 in 10.0 mi North 20.7 mph 26.5 mph N/A   Scattered Clouds
2:15 PM - - - N/A% - - North - - N/A   Unknown
2:35 PM 50.0 °F - 32.0 °F 50% 30.12 in - North 21.9 mph 28.8 mph 0.03 in   Clear
3:15 PM 50.0 °F - 32.0 °F 50% 30.12 in 10.0 mi North 18.4 mph 25.3 mph N/A   Clear
3:35 PM 51.8 °F - 32.0 °F 47% 30.13 in 10.0 mi North 19.6 mph 31.1 mph N/A   Clear
3:55 PM 51.8 °F - 32.0 °F 47% 30.14 in 10.0 mi North 16.1 mph 25.3 mph N/A   Clear
4:15 PM 51.8 °F - 32.0 °F 47% 30.14 in 10.0 mi North 17.3 mph 25.3 mph N/A   Clear
4:35 PM 51.8 °F - 32.0 °F 47% 30.15 in 10.0 mi North 15.0 mph 24.2 mph N/A   Clear
4:55 PM 51.8 °F - 32.0 °F 47% 30.15 in 10.0 mi North 13.8 mph 24.2 mph N/A   Clear
5:15 PM 51.8 °F - 32.0 °F 47% 30.15 in 10.0 mi North 16.1 mph 26.5 mph N/A   Clear
5:35 PM 51.8 °F - 32.0 °F 47% 30.15 in 10.0 mi NNE 15.0 mph 20.7 mph N/A   Clear
5:55 PM 51.8 °F - 32.0 °F 47% 30.16 in 10.0 mi NNE 15.0 mph 25.3 mph N/A   Clear
6:15 PM 50.0 °F - 32.0 °F 50% 30.17 in 10.0 mi NNE 12.7 mph 25.3 mph N/A   Clear
6:35 PM 50.0 °F - 32.0 °F 50% 30.17 in 10.0 mi NNE 11.5 mph 23.0 mph N/A   Clear
6:55 PM 50.0 °F - 32.0 °F 50% 30.18 in 10.0 mi NNE 10.4 mph 16.1 mph N/A   Clear
7:15 PM 46.4 °F 42.4 °F 30.2 °F 53% 30.20 in 10.0 mi NNE 8.1 mph - N/A   Clear
7:35 PM 46.4 °F 42.9 °F 30.2 °F 53% 30.20 in 10.0 mi NNE 6.9 mph - N/A   Clear
7:55 PM 44.6 °F 41.4 °F 30.2 °F 57% 30.21 in 10.0 mi NNE 5.8 mph - N/A   Clear
8:15 PM 44.6 °F 41.4 °F 30.2 °F 57% 30.22 in 10.0 mi NNE 5.8 mph - N/A   Clear
8:35 PM 42.8 °F 38.6 °F 30.2 °F 61% 30.23 in 10.0 mi NNE 6.9 mph - N/A   Clear
8:55 PM 42.8 °F 38.0 °F 30.2 °F 61% 30.23 in 10.0 mi NNE 8.1 mph - N/A   Clear
9:15 PM 42.8 °F 38.0 °F 30.2 °F 61% 30.24 in 10.0 mi NNE 8.1 mph - N/A   Clear
9:35 PM 42.8 °F 38.6 °F 30.2 °F 61% 30.24 in 10.0 mi NNE 6.9 mph - N/A   Clear
9:55 PM 41.0 °F 36.4 °F 30.2 °F 65% 30.25 in 10.0 mi NNE 6.9 mph - N/A   Clear
10:15 PM 41.0 °F 35.2 °F 30.2 °F 65% 30.26 in 10.0 mi NNE 9.2 mph - N/A   Clear
10:35 PM 41.0 °F 35.8 °F 30.2 °F 65% 30.26 in 10.0 mi NNE 8.1 mph - N/A   Clear
10:55 PM 41.0 °F 35.8 °F 30.2 °F 65% 30.26 in 10.0 mi NNE 8.1 mph - N/A   Clear
11:15 PM 41.0 °F 35.8 °F 30.2 °F 65% 30.27 in 10.0 mi NNE 8.1 mph - N/A   Clear
11:35 PM 39.2 °F 34.2 °F 30.2 °F 70% 30.27 in 10.0 mi NNE 6.9 mph - N/A   Clear
11:55 PM 37.4 °F 32.1 °F 30.2 °F 75% 30.27 in 10.0 mi NNE 6.9 mph - N/A   Clear